Overview Statistics Trail Chart Weather Telemetry Raw packets
 

This is the latest recevied weather packets stored in our database for station/object DJ2KUA-6. If no packets are shown the sender has not sent any weather packets the latest 10 day(s).

<< 7 8 9 10 11 12 13 >>
Time Temp. Humidity Pressure Rain* Wind** Luminosity Snow
1788374340 20° C 59% 1073 hPa 0 mm - - -
1788373198 20.56° C 56% 1073 hPa 0 mm - - -
1788372059 21.67° C 54% 1072 hPa 0 mm - - -
1788369778 23.33° C 50% 1072 hPa 0 mm - - -
1788368639 24.44° C 48% 1072 hPa 0 mm - - -
1788367499 24.44° C 47% 1072 hPa 0 mm - - -
1788366358 25° C 46% 1072 hPa 0 mm - - -
1788365218 26.11° C 44% 1072 hPa 0 mm - - -
1788364080 26.67° C 44% 1072 hPa 0 mm - - -
1788362938 26.67° C 44% 1072 hPa 0 mm - - -
1788361798 27.22° C 44% 1072 hPa 0 mm - - -
1788360676 27.78° C - - 0 mm - - -
1788360657 27.78° C 44% 1072 hPa 0 mm - - -
1788358377 27.22° C 46% 1072 hPa 0 mm - - -
1788357238 26.67° C 48% 1072 hPa 0 mm - - -
1788356097 26.67° C 49% 1072 hPa 0 mm - - -
1788354958 26.67° C 48% 1072 hPa 0 mm - - -
1788352679 25° C 52% 1073 hPa 0 mm - - -
1788351539 26.11° C 51% 1073 hPa 0 mm - - -
1788350398 26.11° C 52% 1073 hPa 0 mm - - -
1788349258 25.56° C 55% 1073 hPa 0 mm - - -
1788346978 23.33° C 60% 1073 hPa 0 mm - - -
1788345838 23.33° C 59% 1073 hPa 0 mm - - -
1788344698 22.78° C 61% 1074 hPa 0 mm - - -
1788343558 23.33° C 60% 1074 hPa 0 mm - - -

* Rain latest hour (hover to see other rain measurements)
** Current wind speed in m/s (hover to see current wind gust speed)